Time;durP1;ratioP1;P1;durP2;ratioP2;P2;SDS_P1;SDS_P2;PMS_P1;PMS_P2;Temp;Humidity;BMP_temperature;BMP_pressure;BME280_temperature;BME280_humidity;BME280_pressure;Samples;Min_cycle;Max_cycle;Signal;HPM_P1;HPM_P2
2020/06/06 00:01:32;;;;;;;1.8;1.2;;;;;;;13.88;77.42383;926.808;;;;
2020/06/06 00:07:52;;;;;;;2.4;1.3;;;;;;;13.91;78.41797;926.8873;;;;
2020/06/06 00:11:38;;;;;;;2.4;1.3;;;;;;;13.93;78.45801;926.9781;;;;
2020/06/06 00:14:07;;;;;;;1.4;1.2;;;;;;;13.89;78.13867;926.9216;;;;
2020/06/06 00:21:44;;;;;;;1.4;1;;;;;;;13.74;78.26074;926.9739;;;;
2020/06/06 00:33:01;;;;;;;2.9;1.3;;;;;;;13.62;78.97559;926.7773;;;;
2020/06/06 00:35:27;;;;;;;2;1.3;;;;;;;13.45;79.35645;926.7878;;;;
2020/06/06 00:38:08;;;;;;;2.5;1.5;;;;;;;13.55;79.60645;926.7609;;;;
2020/06/06 00:40:42;;;;;;;3.4;1.4;;;;;;;13.36;79.81348;926.7276;;;;
2020/06/06 00:43:09;;;;;;;5.1;1.4;;;;;;;13.47;79.97266;926.7145;;;;
2020/06/06 00:45:54;;;;;;;2.8;1.3;;;;;;;13.61;79.03027;926.6476;;;;
2020/06/06 00:48:45;;;;;;;2.1;1.2;;;;;;;13.68;78.06543;926.6433;;;;
2020/06/06 00:51:23;;;;;;;3.1;1.3;;;;;;;13.72;77.96973;926.6039;;;;
2020/06/06 00:53:57;;;;;;;1.9;1.1;;;;;;;13.78;77.56543;926.5211;;;;
2020/06/06 00:56:23;;;;;;;3.1;1.4;;;;;;;13.81;77.45703;926.5292;;;;
2020/06/06 00:58:48;;;;;;;1.5;1.1;;;;;;;13.83;78.33496;926.6227;;;;
2020/06/06 01:01:28;;;;;;;1.6;1.3;;;;;;;13.86;76.91309;926.6741;;;;
2020/06/06 01:04:09;;;;;;;1.7;1.3;;;;;;;13.69;77.86133;926.6326;;;;
2020/06/06 01:06:56;;;;;;;2.4;1.3;;;;;;;13.62;78.28613;926.5613;;;;
2020/06/06 01:09:33;;;;;;;2.3;1.3;;;;;;;13.42;79.80176;926.606;;;;
2020/06/06 01:12:09;;;;;;;2.3;1.2;;;;;;;13.36;80.36523;926.6766;;;;
2020/06/06 01:15:07;;;;;;;2.1;1.4;;;;;;;13.22;81.09766;926.7008;;;;
2020/06/06 01:17:32;;;;;;;3.5;1.5;;;;;;;13.24;81.14551;926.5893;;;;
2020/06/06 01:20:10;;;;;;;1.4;1.3;;;;;;;13.24;80.5957;926.4358;;;;
2020/06/06 01:22:47;;;;;;;2.9;1.3;;;;;;;12.9;82.11621;926.4598;;;;
2020/06/06 01:25:15;;;;;;;2.7;1.3;;;;;;;12.94;82.2041;926.3864;;;;
2020/06/06 01:27:44;;;;;;;2;1.4;;;;;;;13.14;81.3584;926.4947;;;;
2020/06/06 01:30:25;;;;;;;2.8;1.6;;;;;;;13.26;80.89844;926.6233;;;;
2020/06/06 01:32:56;;;;;;;1.7;1.4;;;;;;;13.31;80.82617;926.5336;;;;
2020/06/06 01:35:23;;;;;;;3.8;1.5;;;;;;;13.41;80.8916;926.4979;;;;
2020/06/06 01:37:48;;;;;;;2.3;1.5;;;;;;;13.44;80.12695;926.4952;;;;
2020/06/06 01:40:34;;;;;;;2.5;1.6;;;;;;;13.44;80.51758;926.5536;;;;
2020/06/06 01:43:08;;;;;;;3;1.6;;;;;;;13.41;80.81152;926.522;;;;
2020/06/06 01:45:45;;;;;;;2.9;1.4;;;;;;;13.43;80.68848;926.557;;;;
2020/06/06 01:48:17;;;;;;;3;1.4;;;;;;;13.35;80.43164;926.6591;;;;
2020/06/06 01:52:41;;;;;;;2.2;1.3;;;;;;;13.41;80.8916;926.618;;;;
2020/06/06 01:55:18;;;;;;;2.6;1.5;;;;;;;13.42;80.4668;926.7244;;;;
2020/06/06 01:57:45;;;;;;;2.5;1.6;;;;;;;13.31;81.08984;926.6023;;;;
2020/06/06 02:00:11;;;;;;;3.8;1.4;;;;;;;13.36;80.84766;926.5693;;;;
2020/06/06 02:02:44;;;;;;;2.3;1.5;;;;;;;13.42;80.94922;926.5676;;;;
2020/06/06 02:05:09;;;;;;;2.2;1.3;;;;;;;13.32;80.875;926.4189;;;;
2020/06/06 02:07:49;;;;;;;3.7;1.5;;;;;;;13.21;81.27832;926.5001;;;;
2020/06/06 02:10:21;;;;;;;1.8;1.4;;;;;;;13.18;81.25;926.5438;;;;
2020/06/06 02:12:57;;;;;;;1.8;1.3;;;;;;;13.14;81.45996;926.49;;;;
2020/06/06 02:15:53;;;;;;;2.9;1.4;;;;;;;13.06;81.69922;926.402;;;;
2020/06/06 02:18:49;;;;;;;2.7;1.3;;;;;;;13.07;81.3584;926.3082;;;;
2020/06/06 02:24:40;;;;;;;2;1.3;;;;;;;13.15;80.68262;926.3362;;;;
2020/06/06 02:27:52;;;;;;;1.8;1.2;;;;;;;13.12;80.95117;926.1947;;;;
2020/06/06 02:30:37;;;;;;;1.8;1.1;;;;;;;13.14;80.28906;926.2095;;;;
2020/06/06 02:33:43;;;;;;;2.9;1.1;;;;;;;13.13;80.02246;926.2609;;;;
2020/06/06 02:36:08;;;;;;;2.4;1.2;;;;;;;13.19;79.9209;926.2573;;;;
2020/06/06 02:38:55;;;;;;;3.7;1.3;;;;;;;13.23;79.83594;926.2936;;;;
2020/06/06 02:41:36;;;;;;;3.1;1.3;;;;;;;13.27;80.11719;926.3738;;;;
2020/06/06 02:46:57;;;;;;;1.6;1.1;;;;;;;13.23;80.37598;926.2433;;;;
2020/06/06 02:49:55;;;;;;;2.2;1.2;;;;;;;12.95;80.80664;926.3471;;;;
2020/06/06 02:52:29;;;;;;;2.8;1.4;;;;;;;12.8;82.06348;926.3153;;;;
2020/06/06 02:55:12;;;;;;;2.9;1.4;;;;;;;12.78;81.75;926.3395;;;;
2020/06/06 02:57:41;;;;;;;2.2;1.2;;;;;;;12.72;82.49609;926.3254;;;;
2020/06/06 03:00:30;;;;;;;3;1.5;;;;;;;12.57;83.71875;926.4517;;;;
2020/06/06 03:02:57;;;;;;;2.5;1.5;;;;;;;12.44;84.04785;926.3582;;;;
2020/06/06 03:05:26;;;;;;;4.8;1.6;;;;;;;12.47;84.28223;926.34;;;;
2020/06/06 03:07:53;;;;;;;4.5;1.7;;;;;;;12.7;83.05469;926.3499;;;;
2020/06/06 03:10:18;;;;;;;3.1;1.3;;;;;;;12.63;83.44238;926.4141;;;;
2020/06/06 03:14:43;;;;;;;4;1.6;;;;;;;12.81;83.39648;926.5379;;;;
2020/06/06 03:17:30;;;;;;;3.2;1.4;;;;;;;12.84;83.07031;926.5944;;;;
2020/06/06 03:19:55;;;;;;;3.2;1.4;;;;;;;12.86;83.01465;926.7882;;;;
2020/06/06 03:25:04;;;;;;;1.8;1.3;;;;;;;12.73;82.95801;926.83;;;;
2020/06/06 03:27:39;;;;;;;1.4;1.1;;;;;;;12.8;82.56836;926.8128;;;;
2020/06/06 03:30:05;;;;;;;3.4;1.4;;;;;;;12.81;82.71973;926.998;;;;
2020/06/06 03:32:38;;;;;;;1.7;1.2;;;;;;;12.66;83.29785;926.9871;;;;
2020/06/06 03:35:12;;;;;;;4;1.4;;;;;;;12.58;83.57129;927.0959;;;;
2020/06/06 03:37:37;;;;;;;2.5;1.4;;;;;;;12.61;83.27832;927.0969;;;;
2020/06/06 03:40:04;;;;;;;1.4;1.3;;;;;;;12.44;84.16406;927.043;;;;
2020/06/06 03:42:29;;;;;;;2.3;1.3;;;;;;;12.53;83.89355;927.1047;;;;
2020/06/06 03:44:59;;;;;;;6.2;1.7;;;;;;;12.63;83.71777;927.1128;;;;
2020/06/06 03:47:27;;;;;;;1.9;1.5;;;;;;;12.76;83.39746;927.1722;;;;
2020/06/06 03:50:14;;;;;;;2.5;1.4;;;;;;;12.78;83.03418;927.1831;;;;
2020/06/06 03:52:45;;;;;;;1.6;1.2;;;;;;;12.97;82.90918;927.1609;;;;
2020/06/06 03:55:12;;;;;;;2;1.8;;;;;;;12.99;82.24707;927.1735;;;;
2020/06/06 03:57:39;;;;;;;2.7;1.4;;;;;;;12.98;82.21191;927.2478;;;;
2020/06/06 04:07:54;;;;;;;2.5;1.2;;;;;;;13.01;81.36816;927.3455;;;;
2020/06/06 04:10:06;;;;;;;2.6;1.4;;;;;;;13.12;81.33203;927.3639;;;;
2020/06/06 04:12:44;;;;;;;2.6;1.3;;;;;;;12.8;82.35059;927.4439;;;;
2020/06/06 04:15:09;;;;;;;2.6;1.2;;;;;;;12.92;81.43164;927.5469;;;;
2020/06/06 04:17:41;;;;;;;2.5;1;;;;;;;12.77;81.85156;927.4924;;;;
2020/06/06 04:20:06;;;;;;;1.5;1.1;;;;;;;12.91;81.18848;927.4416;;;;
2020/06/06 04:22:44;;;;;;;2.5;1.3;;;;;;;13.12;80.81348;927.3631;;;;
2020/06/06 04:25:21;;;;;;;2.5;1.3;;;;;;;13.17;80.52637;927.2518;;;;
2020/06/06 04:28:03;;;;;;;2.5;1.4;;;;;;;13.24;79.97363;927.0881;;;;
2020/06/06 04:30:45;;;;;;;2;1.6;;;;;;;13.28;79.6377;927.0658;;;;
2020/06/06 04:33:10;;;;;;;1.8;1.5;;;;;;;13.3;79.68848;926.995;;;;
2020/06/06 04:35:36;;;;;;;1.7;1.3;;;;;;;13.24;79.72266;926.9354;;;;
2020/06/06 04:38:07;;;;;;;1.7;1.3;;;;;;;13.24;79.95117;927.0139;;;;
2020/06/06 04:40:40;;;;;;;1.7;1;;;;;;;13.09;79.11035;926.9392;;;;
2020/06/06 04:43:05;;;;;;;1.8;1;;;;;;;13.05;79.02148;926.8273;;;;
2020/06/06 04:45:45;;;;;;;2.3;1.1;;;;;;;13.07;78.80664;926.8078;;;;
2020/06/06 04:48:16;;;;;;;5.7;1.3;;;;;;;13.1;77.98633;926.796;;;;
2020/06/06 04:50:48;;;;;;;9.3;2;;;;;;;13.19;78.08203;926.7339;;;;
2020/06/06 04:53:21;;;;;;;2.7;1.1;;;;;;;13.24;77.8252;926.8204;;;;
2020/06/06 04:56:05;;;;;;;2.6;1;;;;;;;13.37;76.6084;926.7642;;;;
2020/06/06 04:58:26;;;;;;;4.1;1.3;;;;;;;13.55;77.93945;926.7472;;;;
2020/06/06 05:01:07;;;;;;;3.1;1.6;;;;;;;13.53;77.41895;926.7109;;;;
2020/06/06 05:03:32;;;;;;;1.7;1.2;;;;;;;13.42;78.78906;926.7364;;;;
2020/06/06 05:06:04;;;;;;;4;1.4;;;;;;;13.14;80.3916;926.6778;;;;
2020/06/06 05:08:30;;;;;;;2.5;1.2;;;;;;;12.86;81.80957;926.789;;;;
2020/06/06 05:11:00;;;;;;;4;1.1;;;;;;;13.05;81.49121;926.6922;;;;
2020/06/06 05:13:32;;;;;;;3.2;1.3;;;;;;;12.86;82.55566;926.8161;;;;
2020/06/06 05:16:07;;;;;;;1.6;1.1;;;;;;;12.87;82.24902;926.7759;;;;
2020/06/06 05:18:51;;;;;;;2;1;;;;;;;12.99;81.63965;926.793;;;;
2020/06/06 05:21:20;;;;;;;4.6;1.2;;;;;;;13.03;81.6582;926.7814;;;;
2020/06/06 05:23:53;;;;;;;3.2;1;;;;;;;13.03;81.78418;926.7214;;;;
2020/06/06 05:26:27;;;;;;;2.5;1.3;;;;;;;13.11;81.57031;926.759;;;;
2020/06/06 05:28:46;;;;;;;2.4;1.2;;;;;;;13.12;80.78125;926.8603;;;;
2020/06/06 05:32:10;;;;;;;2.3;0.9;;;;;;;13.36;79.57227;926.8763;;;;
2020/06/06 05:34:05;;;;;;;2.2;1.1;;;;;;;13.56;78.73438;926.8086;;;;
2020/06/06 05:36:32;;;;;;;2.1;1.1;;;;;;;13.78;78.19824;926.8549;;;;
2020/06/06 05:44:04;;;;;;;3.6;1.1;;;;;;;14.14;75.44434;926.9169;;;;
2020/06/06 05:46:49;;;;;;;1.7;1.1;;;;;;;14.43;76.02441;926.8198;;;;
2020/06/06 05:49:15;;;;;;;2.2;0.9;;;;;;;14.71;74.27441;927;;;;
2020/06/06 05:51:49;;;;;;;3;1;;;;;;;14.95;74.56836;927.0297;;;;
2020/06/06 05:54:20;;;;;;;3.2;1.3;;;;;;;15.05;74.28516;927.1733;;;;
2020/06/06 05:57:00;;;;;;;1.8;1.1;;;;;;;15.18;73.4873;927.1323;;;;
2020/06/06 05:59:31;;;;;;;1.8;1.3;;;;;;;15.3;73.31055;927.265;;;;
2020/06/06 06:06:09;;;;;;;2.8;1.2;;;;;;;15.42;74.08398;927.2917;;;;
2020/06/06 06:10:03;;;;;;;3;1.4;;;;;;;15.57;71.94824;927.4576;;;;
2020/06/06 06:12:20;;;;;;;4.4;1.5;;;;;;;15.6;71.41016;927.4796;;;;
2020/06/06 06:14:38;;;;;;;4.4;1.2;;;;;;;15.7;70.92969;927.4533;;;;
2020/06/06 06:17:13;;;;;;;6.2;1.6;;;;;;;15.64;70.82813;927.5253;;;;
2020/06/06 06:19:38;;;;;;;4.1;1.2;;;;;;;15.78;70.05273;927.5594;;;;
2020/06/06 06:22:10;;;;;;;2.2;1.3;;;;;;;15.87;70.28516;927.5717;;;;
2020/06/06 06:24:39;;;;;;;2.6;1;;;;;;;15.94;70.28711;927.5455;;;;
2020/06/06 06:27:07;;;;;;;1.1;0.9;;;;;;;16.05;69.4043;927.4815;;;;
2020/06/06 06:29:33;;;;;;;2.8;1.1;;;;;;;16.08;70.37793;927.5539;;;;
2020/06/06 06:31:58;;;;;;;1.9;1.2;;;;;;;16.04;70.03516;927.6008;;;;
2020/06/06 06:34:24;;;;;;;4;1.1;;;;;;;15.99;69.43848;927.5889;;;;
2020/06/06 06:36:54;;;;;;;1.6;1.2;;;;;;;16.06;70.41016;927.5103;;;;
2020/06/06 06:39:43;;;;;;;0.9;0.8;;;;;;;16.13;68.09668;927.582;;;;
2020/06/06 06:42:28;;;;;;;2;1.1;;;;;;;16.25;68.28906;927.5531;;;;
2020/06/06 06:45:10;;;;;;;2.3;1;;;;;;;16.39;69.05078;927.5772;;;;
2020/06/06 06:47:39;;;;;;;2.7;1;;;;;;;16.43;67.68164;927.6089;;;;
2020/06/06 06:50:04;;;;;;;2.7;0.9;;;;;;;16.5;66.45313;927.5797;;;;
2020/06/06 06:52:40;;;;;;;1.8;1.1;;;;;;;16.48;68.52246;927.5793;;;;
2020/06/06 06:55:10;;;;;;;1.2;0.9;;;;;;;16.63;68.55664;927.5614;;;;
2020/06/06 06:57:55;;;;;;;1.9;1;;;;;;;16.85;66.41309;927.6467;;;;
2020/06/06 07:00:36;;;;;;;2.1;1;;;;;;;17.44;65.88672;927.6381;;;;
2020/06/06 07:03:08;;;;;;;1.9;0.9;;;;;;;17.78;63.81445;927.6516;;;;
2020/06/06 07:05:43;;;;;;;1.6;1;;;;;;;18.01;61.61719;927.6801;;;;
2020/06/06 07:08:12;;;;;;;4.7;1;;;;;;;18.05;61.2041;927.6411;;;;
2020/06/06 07:10:42;;;;;;;3.9;1.1;;;;;;;18.28;62.92188;927.6692;;;;
2020/06/06 07:13:11;;;;;;;1.6;0.9;;;;;;;18.55;59.63477;927.5739;;;;
2020/06/06 07:15:38;;;;;;;5.6;1.4;;;;;;;18.99;58.21582;927.5372;;;;
2020/06/06 07:18:05;;;;;;;2.6;1;;;;;;;19.38;57.25293;927.611;;;;
2020/06/06 07:20:49;;;;;;;3.3;0.8;;;;;;;19.55;56.26172;927.4655;;;;
2020/06/06 07:23:14;;;;;;;4.1;0.9;;;;;;;19.65;54.57227;927.5299;;;;
2020/06/06 07:25:39;;;;;;;1.2;0.8;;;;;;;19.23;55.88281;927.5121;;;;
2020/06/06 07:28:14;;;;;;;7.3;1.7;;;;;;;18.84;56.76465;927.5676;;;;
2020/06/06 07:30:51;;;;;;;4.8;1.5;;;;;;;19.3;56.95215;927.5299;;;;
2020/06/06 07:33:32;;;;;;;4;1;;;;;;;19.82;54.1377;927.5278;;;;
2020/06/06 07:36:17;;;;;;;2.6;0.9;;;;;;;20.2;52.39941;927.4903;;;;
2020/06/06 07:38:44;;;;;;;9.7;2.7;;;;;;;21.99;49.21289;927.4694;;;;
2020/06/06 07:41:14;;;;;;;3.2;0.9;;;;;;;23.39;46.92188;927.4509;;;;
2020/06/06 07:43:39;;;;;;;2.2;0.8;;;;;;;24.39;42.79785;927.4688;;;;
2020/06/06 07:46:07;;;;;;;2;0.8;;;;;;;25.89;38.23535;927.3778;;;;
2020/06/06 07:48:41;;;;;;;2.3;0.8;;;;;;;25.98;40.12305;927.5133;;;;
2020/06/06 07:51:08;;;;;;;2.1;0.7;;;;;;;25.48;40.52734;927.4525;;;;
2020/06/06 07:53:48;;;;;;;0.8;0.5;;;;;;;25.38;40.27148;927.3949;;;;
2020/06/06 07:56:29;;;;;;;6.6;2;;;;;;;25.33;41.19922;927.3614;;;;
2020/06/06 07:59:05;;;;;;;0.9;0.6;;;;;;;26.03;37.58496;927.3003;;;;
2020/06/06 08:01:42;;;;;;;0.7;0.5;;;;;;;26.03;36.29492;927.2536;;;;
2020/06/06 08:04:08;;;;;;;1.9;0.7;;;;;;;25.52;36.96289;927.2192;;;;
2020/06/06 08:06:33;;;;;;;1.6;0.6;;;;;;;26.61;38.26074;927.1756;;;;
2020/06/06 08:09:09;;;;;;;1.3;0.7;;;;;;;26.46;37.34863;927.1195;;;;
2020/06/06 08:11:32;;;;;;;1.7;0.5;;;;;;;27.26;35.2334;927.1683;;;;
2020/06/06 08:13:58;;;;;;;0.7;0.5;;;;;;;27.96;35.13281;927.118;;;;
2020/06/06 08:16:41;;;;;;;1.3;0.5;;;;;;;28.65;33.30762;927.1166;;;;
2020/06/06 08:19:24;;;;;;;0.6;0.5;;;;;;;27.96;33.85059;927.1721;;;;
2020/06/06 08:21:58;;;;;;;0.7;0.4;;;;;;;26.95;34.90137;927.1843;;;;
2020/06/06 08:24:25;;;;;;;1.3;0.5;;;;;;;26.02;37.38281;927.1127;;;;
2020/06/06 08:27:08;;;;;;;2.5;0.6;;;;;;;25.91;37.62207;927.0886;;;;
2020/06/06 08:29:52;;;;;;;1.4;0.4;;;;;;;26.06;38.84082;927.1089;;;;
2020/06/06 08:32:36;;;;;;;1.4;0.4;;;;;;;26.16;37.96191;927.0719;;;;
2020/06/06 08:37:26;;;;;;;0.9;0.4;;;;;;;25.07;38.60254;927.1018;;;;
2020/06/06 08:39:44;;;;;;;2.1;0.5;;;;;;;25.07;40.01855;927.0854;;;;
2020/06/06 08:42:18;;;;;;;1.5;0.4;;;;;;;25.24;40.36426;927.0664;;;;
2020/06/06 08:44:43;;;;;;;1.3;0.5;;;;;;;25.26;40.02344;927.0538;;;;
2020/06/06 08:47:08;;;;;;;0.8;0.5;;;;;;;24.95;41.87207;927.0754;;;;
2020/06/06 08:49:37;;;;;;;0.9;0.5;;;;;;;25.12;40.2002;927.0822;;;;
2020/06/06 08:52:02;;;;;;;0.7;0.5;;;;;;;25.15;40.46191;927.0786;;;;
2020/06/06 08:54:28;;;;;;;0.8;0.5;;;;;;;24.82;42.42578;927.1136;;;;
2020/06/06 08:57:04;;;;;;;4.6;0.6;;;;;;;24.6;42.62793;927.1055;;;;
2020/06/06 09:00:33;;;;;;;1.5;0.5;;;;;;;24.76;41.93555;927.1161;;;;
2020/06/06 09:02:22;;;;;;;2.3;0.6;;;;;;;24.38;43.39648;927.1172;;;;
2020/06/06 09:04:57;;;;;;;1.3;0.6;;;;;;;24.36;43.47754;927.085;;;;
2020/06/06 09:07:23;;;;;;;0.7;0.6;;;;;;;24.26;43.23242;927.1208;;;;
2020/06/06 09:10:04;;;;;;;1.6;0.5;;;;;;;24.32;42.89648;927.0709;;;;
2020/06/06 09:12:50;;;;;;;0.6;0.5;;;;;;;24.35;44.20703;927.1058;;;;
2020/06/06 09:15:30;;;;;;;2.7;0.8;;;;;;;24.33;43.22852;927.1581;;;;
2020/06/06 09:17:55;;;;;;;1.1;0.7;;;;;;;24.44;44.45215;927.1395;;;;
2020/06/06 09:20:28;;;;;;;1.1;0.6;;;;;;;24.35;43.32227;927.1939;;;;
2020/06/06 09:22:56;;;;;;;1.8;0.6;;;;;;;24.44;44.67578;927.1128;;;;
2020/06/06 09:28:14;;;;;;;1.9;0.7;;;;;;;25.1;42.4873;927.0076;;;;
2020/06/06 09:33:05;;;;;;;4.1;0.6;;;;;;;25.72;42.29785;926.9666;;;;
2020/06/06 09:35:31;;;;;;;0.8;0.5;;;;;;;25.55;42;926.973;;;;
2020/06/06 09:37:59;;;;;;;0.7;0.5;;;;;;;25.39;41.29883;927.0887;;;;
2020/06/06 09:40:41;;;;;;;0.5;0.5;;;;;;;25.81;42.11816;927.0681;;;;
2020/06/06 09:43:12;;;;;;;1.3;0.6;;;;;;;25.59;41.84863;927.0365;;;;
2020/06/06 09:48:07;;;;;;;2;0.7;;;;;;;24.97;42.69922;927.039;;;;
2020/06/06 09:50:41;;;;;;;1.5;0.6;;;;;;;25.13;43.29297;927.0109;;;;
2020/06/06 09:53:15;;;;;;;1;0.5;;;;;;;25.26;42.67969;926.9999;;;;
2020/06/06 09:55:41;;;;;;;1.5;0.4;;;;;;;25.39;41.07422;926.9763;;;;
2020/06/06 10:01:04;;;;;;;1.4;0.4;;;;;;;25.31;41.97559;926.9878;;;;
2020/06/06 10:06:00;;;;;;;3.7;0.5;;;;;;;24.73;42.06348;927.0524;;;;
2020/06/06 10:11:04;;;;;;;1.4;0.6;;;;;;;24.63;42.32617;927.0391;;;;
2020/06/06 10:13:44;;;;;;;3.3;0.5;;;;;;;24.59;42.23926;926.9913;;;;
2020/06/06 10:16:26;;;;;;;1.9;0.6;;;;;;;24.63;43.18652;927.0083;;;;
2020/06/06 10:18:55;;;;;;;0.5;0.5;;;;;;;24.1;43.85254;926.919;;;;
2020/06/06 10:21:31;;;;;;;1.5;0.5;;;;;;;24.36;45.95215;926.9303;;;;
2020/06/06 10:24:21;;;;;;;3.6;0.6;;;;;;;24.41;45.46289;927.0095;;;;
2020/06/06 10:26:42;;;;;;;1.1;0.5;;;;;;;24.81;42.73242;926.9422;;;;
2020/06/06 10:29:07;;;;;;;1.3;0.6;;;;;;;24.91;44.48633;926.938;;;;
2020/06/06 10:31:50;;;;;;;0.8;0.5;;;;;;;24.93;42.64844;926.9432;;;;
2020/06/06 10:34:20;;;;;;;3.7;1.1;;;;;;;24.58;43.81641;926.9838;;;;
2020/06/06 10:36:51;;;;;;;1;0.5;;;;;;;25.02;42.59863;926.98;;;;
2020/06/06 10:39:34;;;;;;;0.9;0.6;;;;;;;24.8;42.87207;926.9514;;;;
2020/06/06 10:42:15;;;;;;;1.2;0.4;;;;;;;24.47;42.94629;926.9662;;;;
2020/06/06 10:45:10;;;;;;;2;0.5;;;;;;;24.52;44.91992;926.9928;;;;
2020/06/06 10:48:41;;;;;;;2.6;0.5;;;;;;;24.36;43.82031;927.0261;;;;
2020/06/06 10:49:56;;;;;;;1.6;0.5;;;;;;;24.44;43.03711;927.0574;;;;
2020/06/06 10:52:30;;;;;;;1.5;0.6;;;;;;;24.27;43.0332;927.0801;;;;
2020/06/06 10:55:01;;;;;;;1.5;0.5;;;;;;;23.87;43.19434;927.0444;;;;
2020/06/06 10:57:39;;;;;;;2.8;0.5;;;;;;;23.99;44.70117;927.0644;;;;
2020/06/06 11:00:27;;;;;;;0.9;0.5;;;;;;;24.19;44.76855;927.0168;;;;
2020/06/06 11:02:52;;;;;;;1.2;0.5;;;;;;;24.16;44.90723;927.1291;;;;
2020/06/06 11:05:41;;;;;;;1;0.6;;;;;;;24.01;44.9502;927.1682;;;;
2020/06/06 11:08:12;;;;;;;1;0.6;;;;;;;23.4;45.59375;927.1591;;;;
2020/06/06 11:10:55;;;;;;;5.1;0.6;;;;;;;23.09;46.89063;927.095;;;;
2020/06/06 11:13:22;;;;;;;1.7;0.6;;;;;;;22.83;48.74219;927.0272;;;;
2020/06/06 11:16:01;;;;;;;1;0.5;;;;;;;22.65;48.88672;926.9458;;;;
2020/06/06 11:18:29;;;;;;;1.7;0.5;;;;;;;22.63;48.84961;926.9411;;;;
2020/06/06 11:21:19;;;;;;;1.4;0.5;;;;;;;22.73;48.83691;926.9747;;;;
2020/06/06 11:23:44;;;;;;;1.4;0.6;;;;;;;22.74;48.53125;926.9855;;;;
2020/06/06 11:26:12;;;;;;;0.9;0.4;;;;;;;22.64;49.53125;926.9796;;;;
2020/06/06 11:28:37;;;;;;;1.1;0.5;;;;;;;22.72;49.35156;926.9201;;;;
2020/06/06 11:31:07;;;;;;;0.5;0.4;;;;;;;22.73;49.22461;926.9998;;;;
2020/06/06 11:33:35;;;;;;;1.2;0.7;;;;;;;22.88;48.5957;926.9587;;;;
2020/06/06 11:36:08;;;;;;;0.7;0.5;;;;;;;23.33;48.4541;927.0047;;;;
2020/06/06 11:38:34;;;;;;;0.9;0.5;;;;;;;23.63;46.21777;926.9871;;;;
2020/06/06 11:41:01;;;;;;;1.9;0.7;;;;;;;24.06;47.8291;926.9562;;;;
2020/06/06 11:43:31;;;;;;;1.8;0.6;;;;;;;24.28;45.04785;926.992;;;;
2020/06/06 11:46:01;;;;;;;2.5;0.6;;;;;;;24.09;45.88965;927.0094;;;;
2020/06/06 11:48:49;;;;;;;0.7;0.6;;;;;;;23.86;46.42969;926.952;;;;
2020/06/06 11:51:18;;;;;;;2.4;0.6;;;;;;;23.98;46.46582;926.93;;;;
2020/06/06 11:53:56;;;;;;;3.1;0.5;;;;;;;24.3;45.73438;926.9419;;;;
2020/06/06 11:56:43;;;;;;;2.1;0.6;;;;;;;24.42;46.06348;926.9959;;;;
2020/06/06 11:59:23;;;;;;;0.6;0.5;;;;;;;24.61;45.15234;926.8239;;;;
2020/06/06 12:01:49;;;;;;;4.1;0.6;;;;;;;24.23;45.75098;926.8351;;;;
2020/06/06 12:04:24;;;;;;;1.4;0.5;;;;;;;24.26;45.50586;926.9314;;;;
2020/06/06 12:07:02;;;;;;;1.4;0.5;;;;;;;24.32;44.44043;926.9487;;;;
2020/06/06 12:09:36;;;;;;;2;0.5;;;;;;;24.21;44.71191;927.0176;;;;
2020/06/06 12:12:17;;;;;;;1.8;0.5;;;;;;;23.98;45.95996;927.0386;;;;
2020/06/06 12:14:49;;;;;;;0.5;0.4;;;;;;;23.8;45.4707;927.0584;;;;
2020/06/06 12:17:46;;;;;;;1.3;0.5;;;;;;;23.55;45.52734;927.1294;;;;
2020/06/06 12:19:58;;;;;;;1.1;0.6;;;;;;;23.38;47.89746;927.1314;;;;
2020/06/06 12:22:44;;;;;;;1.7;0.8;;;;;;;23.08;47.41797;927.0818;;;;
2020/06/06 12:25:25;;;;;;;1.5;0.6;;;;;;;22.93;47.63672;927.0909;;;;
2020/06/06 12:28:00;;;;;;;1.5;0.6;;;;;;;22.79;48.17383;927.0793;;;;
2020/06/06 12:30:54;;;;;;;1.3;0.6;;;;;;;22.76;48.66406;927.084;;;;
2020/06/06 12:33:25;;;;;;;2.6;0.5;;;;;;;22.69;48.11621;927.0387;;;;
2020/06/06 12:35:56;;;;;;;0.8;0.6;;;;;;;22.61;48.89453;927.0075;;;;
2020/06/06 12:38:27;;;;;;;2.3;0.6;;;;;;;22.48;50.51074;926.9803;;;;
2020/06/06 12:40:54;;;;;;;0.7;0.5;;;;;;;22.43;49.25;926.9906;;;;
2020/06/06 12:43:31;;;;;;;3;0.6;;;;;;;22.37;49.24316;927.0393;;;;
2020/06/06 12:46:09;;;;;;;1;0.7;;;;;;;22.12;50.04688;927.1017;;;;
2020/06/06 12:48:41;;;;;;;0.8;0.5;;;;;;;21.96;50.38184;927.039;;;;
2020/06/06 12:51:18;;;;;;;1.1;0.5;;;;;;;21.86;51.2959;926.9662;;;;
2020/06/06 12:53:49;;;;;;;1.3;0.4;;;;;;;21.84;52.08984;927.0323;;;;
2020/06/06 12:56:32;;;;;;;1.6;0.6;;;;;;;21.77;52.25684;927.1071;;;;
2020/06/06 12:59:12;;;;;;;2.7;0.5;;;;;;;21.83;51.7959;927.1277;;;;
2020/06/06 13:01:56;;;;;;;1.7;0.6;;;;;;;22.02;52.84863;927.1372;;;;
2020/06/06 13:04:32;;;;;;;1.9;0.6;;;;;;;22.3;52.00293;927.2003;;;;
2020/06/06 13:07:18;;;;;;;2.7;0.7;;;;;;;22.48;52.58691;927.2886;;;;
2020/06/06 13:09:46;;;;;;;0.9;0.5;;;;;;;22.76;52.32715;927.236;;;;
2020/06/06 13:12:19;;;;;;;1.9;0.6;;;;;;;23.09;50.46289;927.2811;;;;
2020/06/06 13:14:49;;;;;;;0.8;0.5;;;;;;;23.39;49.13281;927.3414;;;;
2020/06/06 13:17:29;;;;;;;1.5;0.5;;;;;;;23.78;48.0459;927.2739;;;;
2020/06/06 13:20:01;;;;;;;1.7;0.5;;;;;;;24.02;48.56543;927.2675;;;;
2020/06/06 13:22:26;;;;;;;2.4;0.5;;;;;;;24.34;47.02246;927.1978;;;;
2020/06/06 13:25:01;;;;;;;1.8;0.5;;;;;;;24.6;45.98828;927.1625;;;;
2020/06/06 13:27:33;;;;;;;2.7;0.6;;;;;;;24.65;45.68652;927.1782;;;;
2020/06/06 13:30:00;;;;;;;1.5;0.5;;;;;;;24.52;45.65039;927.1184;;;;
2020/06/06 13:32:31;;;;;;;0.9;0.6;;;;;;;24.35;45.4668;927.1874;;;;
2020/06/06 13:35:07;;;;;;;1;0.5;;;;;;;24.3;45.75781;927.2137;;;;
2020/06/06 13:37:33;;;;;;;1.9;0.5;;;;;;;24.29;45.9209;927.1414;;;;
2020/06/06 13:40:00;;;;;;;2.3;0.5;;;;;;;24.17;46.44922;927.1483;;;;
2020/06/06 13:42:34;;;;;;;2.6;0.7;;;;;;;23.9;46.58789;927.1158;;;;
2020/06/06 13:45:23;;;;;;;1.3;0.6;;;;;;;24;46.66797;927.0696;;;;
2020/06/06 13:47:56;;;;;;;1;0.5;;;;;;;23.93;46.56641;927.068;;;;
2020/06/06 13:50:27;;;;;;;2.2;0.6;;;;;;;23.87;47.27832;927.0577;;;;
2020/06/06 13:53:07;;;;;;;1.8;0.7;;;;;;;23.64;47.58398;927.1016;;;;
2020/06/06 13:55:32;;;;;;;2.5;0.7;;;;;;;23.13;47.64648;927.0944;;;;
2020/06/06 13:58:12;;;;;;;2.9;0.8;;;;;;;23.4;48.04004;927.1425;;;;
2020/06/06 14:00:55;;;;;;;1.2;0.6;;;;;;;23.35;47.1875;927.2436;;;;
2020/06/06 14:03:23;;;;;;;1.4;0.6;;;;;;;23.23;47.22266;927.2335;;;;
2020/06/06 14:06:00;;;;;;;0.7;0.5;;;;;;;22.98;49.07617;927.2966;;;;
2020/06/06 14:08:44;;;;;;;1.5;0.6;;;;;;;22.89;47.97266;927.2539;;;;
2020/06/06 14:11:17;;;;;;;1.8;0.5;;;;;;;22.61;48.71875;927.2509;;;;
2020/06/06 14:13:54;;;;;;;0.6;0.6;;;;;;;22.45;49.8623;927.2744;;;;
2020/06/06 14:16:31;;;;;;;0.9;0.6;;;;;;;22.21;51.3584;927.283;;;;
2020/06/06 14:19:07;;;;;;;0.9;0.5;;;;;;;21.98;50.95801;927.1692;;;;
2020/06/06 14:21:44;;;;;;;1;0.6;;;;;;;21.86;52.19824;927.164;;;;
2020/06/06 14:24:26;;;;;;;0.8;0.5;;;;;;;21.66;51.78809;927.144;;;;
2020/06/06 14:27:01;;;;;;;1;0.6;;;;;;;21.56;52.92285;927.2014;;;;
2020/06/06 14:35:09;;;;;;;0.9;0.6;;;;;;;21.3;53.31445;927.3333;;;;
2020/06/06 14:37:55;;;;;;;1.5;0.6;;;;;;;21.19;53.88574;927.3713;;;;
2020/06/06 14:40:10;;;;;;;1.1;0.6;;;;;;;21.07;53.88379;927.3018;;;;
2020/06/06 14:45:23;;;;;;;1.1;0.8;;;;;;;20.84;54.95215;927.2311;;;;
2020/06/06 14:48:06;;;;;;;3.8;0.7;;;;;;;20.77;56.46387;927.264;;;;
2020/06/06 14:50:48;;;;;;;1.1;0.6;;;;;;;20.78;57.00293;927.2707;;;;
2020/06/06 14:53:31;;;;;;;1.1;0.7;;;;;;;20.88;57.54199;927.2881;;;;
2020/06/06 14:59:06;;;;;;;1.8;0.6;;;;;;;21.22;60.46484;927.2006;;;;
2020/06/06 15:01:30;;;;;;;1.2;0.7;;;;;;;21.42;62.21289;927.0058;;;;
2020/06/06 15:04:16;;;;;;;1.2;0.6;;;;;;;21.52;61.00879;927.0836;;;;
2020/06/06 15:14:09;;;;;;;0.8;0.6;;;;;;;21.6;59.92969;927.0661;;;;
2020/06/06 15:16:41;;;;;;;1.9;0.6;;;;;;;21.76;58.85059;927.0201;;;;
2020/06/06 15:24:11;;;;;;;2.7;0.7;;;;;;;21.54;57.41699;926.8359;;;;
2020/06/06 15:27:04;;;;;;;1.1;0.7;;;;;;;21.57;56.56543;926.8513;;;;
2020/06/06 15:32:47;;;;;;;1.6;0.7;;;;;;;21.51;56.55859;926.9707;;;;
2020/06/06 15:34:34;;;;;;;1;0.7;;;;;;;21.37;56.64551;926.9533;;;;
2020/06/06 15:37:03;;;;;;;1;0.7;;;;;;;21.44;57.56641;926.8653;;;;
2020/06/06 15:39:34;;;;;;;54.6;12.2;;;;;;;21.62;58.22363;926.9086;;;;
2020/06/06 15:44:39;;;;;;;64.2;15.8;;;;;;;21.97;57.36719;927.0255;;;;
2020/06/06 15:47:05;;;;;;;37.8;9.5;;;;;;;22;55.35352;927.0394;;;;
2020/06/06 15:52:09;;;;;;;1.2;0.6;;;;;;;21.98;54.27344;927.0551;;;;
2020/06/06 15:55:02;;;;;;;1.6;0.6;;;;;;;21.96;55.17383;927.1188;;;;
2020/06/06 15:57:42;;;;;;;1.6;0.7;;;;;;;21.88;55.10449;927.0905;;;;
2020/06/06 16:00:15;;;;;;;1.9;0.8;;;;;;;21.87;54.48242;927.1839;;;;
2020/06/06 16:02:49;;;;;;;2.7;0.7;;;;;;;21.82;53.9502;927.1845;;;;
2020/06/06 16:12:46;;;;;;;0.7;0.5;;;;;;;21.6;54.90723;927.0545;;;;
2020/06/06 16:15:23;;;;;;;0.7;0.6;;;;;;;21.58;54.53027;927.1155;;;;
2020/06/06 16:17:53;;;;;;;1.2;0.7;;;;;;;21.55;55.4043;927.1141;;;;
2020/06/06 16:23:53;;;;;;;1.4;0.8;;;;;;;21.28;55.95508;927.1011;;;;
2020/06/06 16:25:46;;;;;;;2.2;0.9;;;;;;;21.09;56.83203;927.1077;;;;
2020/06/06 16:38:32;;;;;;;2.2;0.8;;;;;;;20.16;58.07813;927.0494;;;;
2020/06/06 16:41:07;;;;;;;3.5;0.8;;;;;;;20.05;58.16895;927.0106;;;;
2020/06/06 16:48:33;;;;;;;1.5;0.9;;;;;;;19.71;60.30566;927.1105;;;;
2020/06/06 16:50:54;;;;;;;3.5;0.9;;;;;;;19.54;61.59766;927.3117;;;;
2020/06/06 16:53:30;;;;;;;1.8;1;;;;;;;19.54;62.4375;927.524;;;;
2020/06/06 16:56:21;;;;;;;2;0.8;;;;;;;19.57;62.02246;927.6462;;;;
2020/06/06 16:58:41;;;;;;;2.9;1;;;;;;;19.43;64.33398;927.6791;;;;
2020/06/06 17:02:21;;;;;;;2.4;1;;;;;;;19.34;66.14844;927.7037;;;;
2020/06/06 17:06:48;;;;;;;9;2.1;;;;;;;18.86;71.16211;927.8596;;;;
2020/06/06 17:09:26;;;;;;;7.1;1.7;;;;;;;18.64;73.09375;928.1628;;;;
2020/06/06 17:12:18;;;;;;;3.1;1.2;;;;;;;18.52;73.59668;928.3675;;;;